sensor_id;sensor_type;location;lat;lon;timestamp;P1;durP1;ratioP1;P2;durP2;ratioP2
44410;SDS011;30122;54.734;-1.750;2022-08-01T00:00:24;5.82;;;1.13;;
44410;SDS011;30122;54.734;-1.750;2022-08-01T00:03:26;3.47;;;1.00;;
44410;SDS011;30122;54.734;-1.750;2022-08-01T00:06:28;6.45;;;1.50;;
44410;SDS011;30122;54.734;-1.750;2022-08-01T00:09:30;3.35;;;0.65;;
44410;SDS011;30122;54.734;-1.750;2022-08-01T00:12:32;6.35;;;1.27;;
44410;SDS011;30122;54.734;-1.750;2022-08-01T00:15:33;6.25;;;1.27;;
44410;SDS011;30122;54.734;-1.750;2022-08-01T00:18:35;5.38;;;0.90;;
44410;SDS011;30122;54.734;-1.750;2022-08-01T00:21:37;5.70;;;1.30;;
44410;SDS011;30122;54.734;-1.750;2022-08-01T00:24:52;4.72;;;0.95;;
44410;SDS011;30122;54.734;-1.750;2022-08-01T00:27:54;4.70;;;1.10;;
44410;SDS011;30122;54.734;-1.750;2022-08-01T00:30:55;6.05;;;1.20;;
44410;SDS011;30122;54.734;-1.750;2022-08-01T00:33:57;4.07;;;1.23;;
44410;SDS011;30122;54.734;-1.750;2022-08-01T00:36:59;3.90;;;1.02;;
44410;SDS011;30122;54.734;-1.750;2022-08-01T00:40:01;10.15;;;1.60;;
44410;SDS011;30122;54.734;-1.750;2022-08-01T00:43:03;9.13;;;1.27;;
44410;SDS011;30122;54.734;-1.750;2022-08-01T00:46:04;7.25;;;1.10;;
44410;SDS011;30122;54.734;-1.750;2022-08-01T00:49:06;4.70;;;1.30;;
44410;SDS011;30122;54.734;-1.750;2022-08-01T00:52:11;5.78;;;1.52;;
44410;SDS011;30122;54.734;-1.750;2022-08-01T00:55:13;7.00;;;1.35;;
44410;SDS011;30122;54.734;-1.750;2022-08-01T00:58:15;2.88;;;1.10;;
44410;SDS011;30122;54.734;-1.750;2022-08-01T01:01:18;8.25;;;2.40;;
44410;SDS011;30122;54.734;-1.750;2022-08-01T01:04:22;3.13;;;1.10;;
44410;SDS011;30122;54.734;-1.750;2022-08-01T01:11:25;3.53;;;1.00;;
44410;SDS011;30122;54.734;-1.750;2022-08-01T01:27:51;4.03;;;0.80;;
44410;SDS011;30122;54.734;-1.750;2022-08-01T01:31:02;3.58;;;0.85;;
44410;SDS011;30122;54.734;-1.750;2022-08-01T01:34:06;5.18;;;1.08;;
44410;SDS011;30122;54.734;-1.750;2022-08-01T01:37:12;5.47;;;1.05;;
44410;SDS011;30122;54.734;-1.750;2022-08-01T01:40:16;3.38;;;0.90;;
44410;SDS011;30122;54.734;-1.750;2022-08-01T01:43:18;7.95;;;0.98;;
44410;SDS011;30122;54.734;-1.750;2022-08-01T01:46:22;3.28;;;0.60;;
44410;SDS011;30122;54.734;-1.750;2022-08-01T01:49:28;5.07;;;1.20;;
44410;SDS011;30122;54.734;-1.750;2022-08-01T01:55:32;5.03;;;0.70;;
44410;SDS011;30122;54.734;-1.750;2022-08-01T01:58:53;4.45;;;1.10;;
44410;SDS011;30122;54.734;-1.750;2022-08-01T02:01:58;3.30;;;0.70;;
44410;SDS011;30122;54.734;-1.750;2022-08-01T02:05:07;5.07;;;0.90;;
44410;SDS011;30122;54.734;-1.750;2022-08-01T02:08:11;5.05;;;1.45;;
44410;SDS011;30122;54.734;-1.750;2022-08-01T02:11:16;4.43;;;0.85;;
44410;SDS011;30122;54.734;-1.750;2022-08-01T02:14:21;2.35;;;0.47;;
44410;SDS011;30122;54.734;-1.750;2022-08-01T02:17:23;2.92;;;0.80;;
44410;SDS011;30122;54.734;-1.750;2022-08-01T02:20:27;3.00;;;0.50;;
44410;SDS011;30122;54.734;-1.750;2022-08-01T02:23:31;4.45;;;0.80;;
44410;SDS011;30122;54.734;-1.750;2022-08-01T02:26:34;3.05;;;0.52;;
44410;SDS011;30122;54.734;-1.750;2022-08-01T02:29:41;4.10;;;0.98;;
44410;SDS011;30122;54.734;-1.750;2022-08-01T02:33:07;4.05;;;0.85;;
44410;SDS011;30122;54.734;-1.750;2022-08-01T02:36:16;5.55;;;0.80;;
44410;SDS011;30122;54.734;-1.750;2022-08-01T02:39:33;3.97;;;0.80;;
44410;SDS011;30122;54.734;-1.750;2022-08-01T02:42:37;5.10;;;0.73;;
44410;SDS011;30122;54.734;-1.750;2022-08-01T02:45:42;2.78;;;0.80;;
44410;SDS011;30122;54.734;-1.750;2022-08-01T02:48:45;2.15;;;0.60;;
44410;SDS011;30122;54.734;-1.750;2022-08-01T02:51:48;2.72;;;0.88;;
44410;SDS011;30122;54.734;-1.750;2022-08-01T02:54:51;5.18;;;0.47;;
44410;SDS011;30122;54.734;-1.750;2022-08-01T02:57:54;4.35;;;0.60;;
44410;SDS011;30122;54.734;-1.750;2022-08-01T03:01:01;3.45;;;0.80;;
44410;SDS011;30122;54.734;-1.750;2022-08-01T03:04:03;7.38;;;1.10;;
44410;SDS011;30122;54.734;-1.750;2022-08-01T03:07:07;3.75;;;0.70;;
44410;SDS011;30122;54.734;-1.750;2022-08-01T03:10:10;6.00;;;0.90;;
44410;SDS011;30122;54.734;-1.750;2022-08-01T03:13:13;4.75;;;0.73;;
44410;SDS011;30122;54.734;-1.750;2022-08-01T03:16:15;5.82;;;0.57;;
44410;SDS011;30122;54.734;-1.750;2022-08-01T03:22:21;2.42;;;0.60;;
44410;SDS011;30122;54.734;-1.750;2022-08-01T03:25:24;2.88;;;0.88;;
44410;SDS011;30122;54.734;-1.750;2022-08-01T03:28:27;4.88;;;1.17;;
44410;SDS011;30122;54.734;-1.750;2022-08-01T03:31:30;4.03;;;0.70;;
44410;SDS011;30122;54.734;-1.750;2022-08-01T03:34:32;9.43;;;0.93;;
44410;SDS011;30122;54.734;-1.750;2022-08-01T03:37:36;5.13;;;0.80;;
44410;SDS011;30122;54.734;-1.750;2022-08-01T03:41:04;4.10;;;1.17;;
44410;SDS011;30122;54.734;-1.750;2022-08-01T03:44:14;5.40;;;1.00;;
44410;SDS011;30122;54.734;-1.750;2022-08-01T03:47:17;3.42;;;1.00;;
44410;SDS011;30122;54.734;-1.750;2022-08-01T03:50:20;7.22;;;1.10;;
44410;SDS011;30122;54.734;-1.750;2022-08-01T03:53:24;3.70;;;0.98;;
44410;SDS011;30122;54.734;-1.750;2022-08-01T03:56:27;3.28;;;0.82;;
44410;SDS011;30122;54.734;-1.750;2022-08-01T03:59:34;5.43;;;2.45;;
44410;SDS011;30122;54.734;-1.750;2022-08-01T04:02:36;1.83;;;0.80;;
44410;SDS011;30122;54.734;-1.750;2022-08-01T04:05:42;3.10;;;1.00;;
44410;SDS011;30122;54.734;-1.750;2022-08-01T04:08:44;5.18;;;0.93;;
44410;SDS011;30122;54.734;-1.750;2022-08-01T04:11:58;3.17;;;0.93;;
44410;SDS011;30122;54.734;-1.750;2022-08-01T04:15:01;2.05;;;1.00;;
44410;SDS011;30122;54.734;-1.750;2022-08-01T04:18:03;2.60;;;1.00;;
44410;SDS011;30122;54.734;-1.750;2022-08-01T04:21:05;5.70;;;1.23;;
44410;SDS011;30122;54.734;-1.750;2022-08-01T04:24:16;6.63;;;1.30;;
44410;SDS011;30122;54.734;-1.750;2022-08-01T04:27:22;4.75;;;1.25;;
44410;SDS011;30122;54.734;-1.750;2022-08-01T04:30:50;2.60;;;1.13;;
44410;SDS011;30122;54.734;-1.750;2022-08-01T04:33:56;6.22;;;1.40;;
44410;SDS011;30122;54.734;-1.750;2022-08-01T04:36:58;2.78;;;1.02;;
44410;SDS011;30122;54.734;-1.750;2022-08-01T04:40:01;7.22;;;1.52;;
44410;SDS011;30122;54.734;-1.750;2022-08-01T04:43:07;4.97;;;1.17;;
44410;SDS011;30122;54.734;-1.750;2022-08-01T04:46:09;4.78;;;1.10;;
44410;SDS011;30122;54.734;-1.750;2022-08-01T04:49:11;4.50;;;1.35;;
44410;SDS011;30122;54.734;-1.750;2022-08-01T04:52:13;3.92;;;1.17;;
44410;SDS011;30122;54.734;-1.750;2022-08-01T04:55:22;3.78;;;1.27;;
44410;SDS011;30122;54.734;-1.750;2022-08-01T04:58:23;7.05;;;1.08;;
44410;SDS011;30122;54.734;-1.750;2022-08-01T05:01:25;5.80;;;0.90;;
44410;SDS011;30122;54.734;-1.750;2022-08-01T05:04:27;9.05;;;1.77;;
44410;SDS011;30122;54.734;-1.750;2022-08-01T05:07:29;6.80;;;1.17;;
44410;SDS011;30122;54.734;-1.750;2022-08-01T05:10:30;11.07;;;1.70;;
44410;SDS011;30122;54.734;-1.750;2022-08-01T05:13:32;5.40;;;1.30;;
44410;SDS011;30122;54.734;-1.750;2022-08-01T05:16:34;6.50;;;1.27;;
44410;SDS011;30122;54.734;-1.750;2022-08-01T05:19:36;7.87;;;1.17;;
44410;SDS011;30122;54.734;-1.750;2022-08-01T05:22:39;8.05;;;1.13;;
44410;SDS011;30122;54.734;-1.750;2022-08-01T05:25:42;4.55;;;1.00;;
44410;SDS011;30122;54.734;-1.750;2022-08-01T05:28:59;3.90;;;0.98;;
44410;SDS011;30122;54.734;-1.750;2022-08-01T05:35:02;3.50;;;1.00;;
44410;SDS011;30122;54.734;-1.750;2022-08-01T05:38:05;3.60;;;0.80;;
44410;SDS011;30122;54.734;-1.750;2022-08-01T05:41:14;5.45;;;1.15;;
44410;SDS011;30122;54.734;-1.750;2022-08-01T05:44:16;3.20;;;1.15;;
44410;SDS011;30122;54.734;-1.750;2022-08-01T05:47:18;5.63;;;0.82;;
44410;SDS011;30122;54.734;-1.750;2022-08-01T05:50:20;2.55;;;0.82;;
44410;SDS011;30122;54.734;-1.750;2022-08-01T05:53:22;5.97;;;1.42;;
44410;SDS011;30122;54.734;-1.750;2022-08-01T05:56:23;4.15;;;1.08;;
44410;SDS011;30122;54.734;-1.750;2022-08-01T05:59:30;5.40;;;1.13;;
44410;SDS011;30122;54.734;-1.750;2022-08-01T06:02:32;3.33;;;1.33;;
44410;SDS011;30122;54.734;-1.750;2022-08-01T06:05:34;5.20;;;1.17;;
44410;SDS011;30122;54.734;-1.750;2022-08-01T06:08:36;3.92;;;1.00;;
44410;SDS011;30122;54.734;-1.750;2022-08-01T06:11:38;4.47;;;0.82;;
44410;SDS011;30122;54.734;-1.750;2022-08-01T06:14:39;4.45;;;0.60;;
44410;SDS011;30122;54.734;-1.750;2022-08-01T06:17:41;2.58;;;0.70;;
44410;SDS011;30122;54.734;-1.750;2022-08-01T06:20:43;2.83;;;1.23;;
44410;SDS011;30122;54.734;-1.750;2022-08-01T06:23:45;3.13;;;0.63;;
44410;SDS011;30122;54.734;-1.750;2022-08-01T06:26:47;1.85;;;0.65;;
44410;SDS011;30122;54.734;-1.750;2022-08-01T06:29:48;3.40;;;1.02;;
44410;SDS011;30122;54.734;-1.750;2022-08-01T06:32:54;6.60;;;1.00;;
44410;SDS011;30122;54.734;-1.750;2022-08-01T06:36:01;4.75;;;0.93;;
44410;SDS011;30122;54.734;-1.750;2022-08-01T06:39:03;6.22;;;0.93;;
44410;SDS011;30122;54.734;-1.750;2022-08-01T06:42:04;3.88;;;1.20;;
44410;SDS011;30122;54.734;-1.750;2022-08-01T06:45:08;8.15;;;0.90;;
44410;SDS011;30122;54.734;-1.750;2022-08-01T06:48:11;3.28;;;0.70;;
44410;SDS011;30122;54.734;-1.750;2022-08-01T06:51:12;3.00;;;0.70;;
44410;SDS011;30122;54.734;-1.750;2022-08-01T06:54:19;3.97;;;0.57;;
44410;SDS011;30122;54.734;-1.750;2022-08-01T06:57:21;4.72;;;0.60;;
44410;SDS011;30122;54.734;-1.750;2022-08-01T07:00:23;2.05;;;0.70;;
44410;SDS011;30122;54.734;-1.750;2022-08-01T07:03:26;1.98;;;0.88;;
44410;SDS011;30122;54.734;-1.750;2022-08-01T07:06:49;5.05;;;0.65;;
44410;SDS011;30122;54.734;-1.750;2022-08-01T07:09:50;5.68;;;0.60;;
44410;SDS011;30122;54.734;-1.750;2022-08-01T07:12:53;1.92;;;0.45;;
44410;SDS011;30122;54.734;-1.750;2022-08-01T07:15:55;2.55;;;0.73;;
44410;SDS011;30122;54.734;-1.750;2022-08-01T07:18:57;3.05;;;0.73;;
44410;SDS011;30122;54.734;-1.750;2022-08-01T07:21:58;3.58;;;0.82;;
44410;SDS011;30122;54.734;-1.750;2022-08-01T07:25:00;6.10;;;0.63;;
44410;SDS011;30122;54.734;-1.750;2022-08-01T07:28:02;0.75;;;0.40;;
44410;SDS011;30122;54.734;-1.750;2022-08-01T07:31:04;4.07;;;0.65;;
44410;SDS011;30122;54.734;-1.750;2022-08-01T07:34:06;3.95;;;0.70;;
44410;SDS011;30122;54.734;-1.750;2022-08-01T07:37:08;2.38;;;0.50;;
44410;SDS011;30122;54.734;-1.750;2022-08-01T07:40:10;4.90;;;0.57;;
44410;SDS011;30122;54.734;-1.750;2022-08-01T07:43:12;1.55;;;0.73;;
44410;SDS011;30122;54.734;-1.750;2022-08-01T07:46:16;1.80;;;0.30;;
44410;SDS011;30122;54.734;-1.750;2022-08-01T07:49:18;4.35;;;0.40;;
44410;SDS011;30122;54.734;-1.750;2022-08-01T07:52:20;2.55;;;0.50;;
44410;SDS011;30122;54.734;-1.750;2022-08-01T07:55:22;4.32;;;0.60;;
44410;SDS011;30122;54.734;-1.750;2022-08-01T07:58:23;5.60;;;0.50;;
44410;SDS011;30122;54.734;-1.750;2022-08-01T08:01:25;3.80;;;0.40;;
44410;SDS011;30122;54.734;-1.750;2022-08-01T08:04:28;1.90;;;0.50;;
44410;SDS011;30122;54.734;-1.750;2022-08-01T08:07:30;2.72;;;0.43;;
44410;SDS011;30122;54.734;-1.750;2022-08-01T08:10:31;6.50;;;2.25;;
44410;SDS011;30122;54.734;-1.750;2022-08-01T08:13:33;1.60;;;0.60;;
44410;SDS011;30122;54.734;-1.750;2022-08-01T08:16:35;3.00;;;0.70;;
44410;SDS011;30122;54.734;-1.750;2022-08-01T08:19:37;1.88;;;0.43;;
44410;SDS011;30122;54.734;-1.750;2022-08-01T08:22:40;2.35;;;0.80;;
44410;SDS011;30122;54.734;-1.750;2022-08-01T08:25:42;2.10;;;0.52;;
44410;SDS011;30122;54.734;-1.750;2022-08-01T08:28:43;3.58;;;0.40;;
44410;SDS011;30122;54.734;-1.750;2022-08-01T08:31:45;1.83;;;0.60;;
44410;SDS011;30122;54.734;-1.750;2022-08-01T08:34:53;2.60;;;0.47;;
44410;SDS011;30122;54.734;-1.750;2022-08-01T08:37:54;1.98;;;0.38;;
44410;SDS011;30122;54.734;-1.750;2022-08-01T08:40:59;1.92;;;0.40;;
44410;SDS011;30122;54.734;-1.750;2022-08-01T08:44:04;0.98;;;0.40;;
44410;SDS011;30122;54.734;-1.750;2022-08-01T08:47:13;1.80;;;0.10;;
44410;SDS011;30122;54.734;-1.750;2022-08-01T08:50:20;1.13;;;0.25;;
44410;SDS011;30122;54.734;-1.750;2022-08-01T08:53:22;4.63;;;0.63;;
44410;SDS011;30122;54.734;-1.750;2022-08-01T08:56:24;2.55;;;0.50;;
44410;SDS011;30122;54.734;-1.750;2022-08-01T08:59:28;2.55;;;0.45;;
44410;SDS011;30122;54.734;-1.750;2022-08-01T09:02:30;2.92;;;0.35;;
44410;SDS011;30122;54.734;-1.750;2022-08-01T09:05:32;4.22;;;0.30;;
44410;SDS011;30122;54.734;-1.750;2022-08-01T09:08:39;2.13;;;0.40;;
44410;SDS011;30122;54.734;-1.750;2022-08-01T09:11:41;4.05;;;0.52;;
44410;SDS011;30122;54.734;-1.750;2022-08-01T09:14:44;2.10;;;0.30;;
44410;SDS011;30122;54.734;-1.750;2022-08-01T09:17:47;1.13;;;0.40;;
44410;SDS011;30122;54.734;-1.750;2022-08-01T09:20:49;0.68;;;0.35;;
44410;SDS011;30122;54.734;-1.750;2022-08-01T09:23:52;1.10;;;0.28;;
44410;SDS011;30122;54.734;-1.750;2022-08-01T09:26:55;0.70;;;0.20;;
44410;SDS011;30122;54.734;-1.750;2022-08-01T09:30:09;1.95;;;0.30;;
44410;SDS011;30122;54.734;-1.750;2022-08-01T09:33:23;0.85;;;0.30;;
44410;SDS011;30122;54.734;-1.750;2022-08-01T09:36:26;0.55;;;0.30;;
44410;SDS011;30122;54.734;-1.750;2022-08-01T09:39:33;0.63;;;0.30;;
44410;SDS011;30122;54.734;-1.750;2022-08-01T09:42:38;1.15;;;0.30;;
44410;SDS011;30122;54.734;-1.750;2022-08-01T09:45:40;0.40;;;0.30;;
44410;SDS011;30122;54.734;-1.750;2022-08-01T09:55:20;1.02;;;0.30;;
44410;SDS011;30122;54.734;-1.750;2022-08-01T09:58:22;0.68;;;0.35;;
44410;SDS011;30122;54.734;-1.750;2022-08-01T10:01:25;0.68;;;0.22;;
44410;SDS011;30122;54.734;-1.750;2022-08-01T10:04:37;1.25;;;0.45;;
44410;SDS011;30122;54.734;-1.750;2022-08-01T10:11:23;0.52;;;0.28;;
44410;SDS011;30122;54.734;-1.750;2022-08-01T10:14:37;1.10;;;0.22;;
44410;SDS011;30122;54.734;-1.750;2022-08-01T10:17:41;5.35;;;0.60;;
44410;SDS011;30122;54.734;-1.750;2022-08-01T10:20:58;2.72;;;0.30;;
44410;SDS011;30122;54.734;-1.750;2022-08-01T10:24:01;3.70;;;0.45;;
44410;SDS011;30122;54.734;-1.750;2022-08-01T10:27:08;1.30;;;0.40;;
44410;SDS011;30122;54.734;-1.750;2022-08-01T10:30:13;0.43;;;0.15;;
44410;SDS011;30122;54.734;-1.750;2022-08-01T10:33:24;2.10;;;0.32;;
44410;SDS011;30122;54.734;-1.750;2022-08-01T10:36:46;0.85;;;0.47;;
44410;SDS011;30122;54.734;-1.750;2022-08-01T10:39:48;1.92;;;0.35;;
44410;SDS011;30122;54.734;-1.750;2022-08-01T10:43:15;2.10;;;0.50;;
44410;SDS011;30122;54.734;-1.750;2022-08-01T10:46:22;1.35;;;0.57;;
44410;SDS011;30122;54.734;-1.750;2022-08-01T10:52:27;3.00;;;0.45;;
44410;SDS011;30122;54.734;-1.750;2022-08-01T10:55:29;1.58;;;0.52;;
44410;SDS011;30122;54.734;-1.750;2022-08-01T10:58:47;1.63;;;0.50;;
44410;SDS011;30122;54.734;-1.750;2022-08-01T11:01:56;1.65;;;0.40;;
44410;SDS011;30122;54.734;-1.750;2022-08-01T11:05:12;3.83;;;0.50;;
44410;SDS011;30122;54.734;-1.750;2022-08-01T11:08:24;1.45;;;0.40;;
44410;SDS011;30122;54.734;-1.750;2022-08-01T11:11:27;0.73;;;0.40;;
44410;SDS011;30122;54.734;-1.750;2022-08-01T11:18:28;4.75;;;0.57;;
44410;SDS011;30122;54.734;-1.750;2022-08-01T11:25:02;0.73;;;0.30;;
44410;SDS011;30122;54.734;-1.750;2022-08-01T11:34:20;2.88;;;1.63;;
44410;SDS011;30122;54.734;-1.750;2022-08-01T11:38:01;2.05;;;0.55;;
44410;SDS011;30122;54.734;-1.750;2022-08-01T11:41:26;2.13;;;0.75;;
44410;SDS011;30122;54.734;-1.750;2022-08-01T11:44:47;1.58;;;0.40;;
44410;SDS011;30122;54.734;-1.750;2022-08-01T11:47:50;1.25;;;0.45;;
44410;SDS011;30122;54.734;-1.750;2022-08-01T11:50:53;1.85;;;0.45;;
44410;SDS011;30122;54.734;-1.750;2022-08-01T11:53:56;0.50;;;0.30;;
44410;SDS011;30122;54.734;-1.750;2022-08-01T11:57:01;2.47;;;0.47;;
44410;SDS011;30122;54.734;-1.750;2022-08-01T12:00:10;1.92;;;0.40;;
44410;SDS011;30122;54.734;-1.750;2022-08-01T12:03:17;0.90;;;0.50;;
44410;SDS011;30122;54.734;-1.750;2022-08-01T12:06:34;3.08;;;0.45;;
44410;SDS011;30122;54.734;-1.750;2022-08-01T12:09:35;1.17;;;0.40;;
44410;SDS011;30122;54.734;-1.750;2022-08-01T12:12:42;0.85;;;0.32;;
44410;SDS011;30122;54.734;-1.750;2022-08-01T12:15:48;1.25;;;0.35;;
44410;SDS011;30122;54.734;-1.750;2022-08-01T12:18:57;1.50;;;0.50;;
44410;SDS011;30122;54.734;-1.750;2022-08-01T12:22:08;2.50;;;0.40;;
44410;SDS011;30122;54.734;-1.750;2022-08-01T12:25:16;3.33;;;0.80;;
44410;SDS011;30122;54.734;-1.750;2022-08-01T12:28:18;2.05;;;0.50;;
44410;SDS011;30122;54.734;-1.750;2022-08-01T12:31:30;2.05;;;0.57;;
44410;SDS011;30122;54.734;-1.750;2022-08-01T12:34:32;0.75;;;0.40;;
44410;SDS011;30122;54.734;-1.750;2022-08-01T12:37:36;2.67;;;0.90;;
44410;SDS011;30122;54.734;-1.750;2022-08-01T12:43:53;1.92;;;0.88;;
44410;SDS011;30122;54.734;-1.750;2022-08-01T12:46:55;2.25;;;0.60;;
44410;SDS011;30122;54.734;-1.750;2022-08-01T12:49:57;2.65;;;0.60;;
44410;SDS011;30122;54.734;-1.750;2022-08-01T12:52:59;3.95;;;0.77;;
44410;SDS011;30122;54.734;-1.750;2022-08-01T12:56:02;2.55;;;0.60;;
44410;SDS011;30122;54.734;-1.750;2022-08-01T13:02:31;3.13;;;0.77;;
44410;SDS011;30122;54.734;-1.750;2022-08-01T13:06:09;2.13;;;0.50;;
44410;SDS011;30122;54.734;-1.750;2022-08-01T13:09:06;2.83;;;0.50;;
44410;SDS011;30122;54.734;-1.750;2022-08-01T13:12:08;1.42;;;0.50;;
44410;SDS011;30122;54.734;-1.750;2022-08-01T13:15:16;2.75;;;0.63;;
44410;SDS011;30122;54.734;-1.750;2022-08-01T13:18:23;1.77;;;0.85;;
44410;SDS011;30122;54.734;-1.750;2022-08-01T13:21:30;2.08;;;0.60;;
44410;SDS011;30122;54.734;-1.750;2022-08-01T13:24:52;1.30;;;0.47;;
44410;SDS011;30122;54.734;-1.750;2022-08-01T13:31:17;0.80;;;0.43;;
44410;SDS011;30122;54.734;-1.750;2022-08-01T13:37:30;1.58;;;0.30;;
44410;SDS011;30122;54.734;-1.750;2022-08-01T13:40:33;1.33;;;0.38;;
44410;SDS011;30122;54.734;-1.750;2022-08-01T13:43:34;1.20;;;0.30;;
44410;SDS011;30122;54.734;-1.750;2022-08-01T13:46:56;1.23;;;0.40;;
44410;SDS011;30122;54.734;-1.750;2022-08-01T13:49:59;2.40;;;0.40;;
44410;SDS011;30122;54.734;-1.750;2022-08-01T13:53:03;1.52;;;0.50;;
44410;SDS011;30122;54.734;-1.750;2022-08-01T13:59:07;1.95;;;0.40;;
44410;SDS011;30122;54.734;-1.750;2022-08-01T14:02:09;1.25;;;0.38;;
44410;SDS011;30122;54.734;-1.750;2022-08-01T14:05:11;2.50;;;0.50;;
44410;SDS011;30122;54.734;-1.750;2022-08-01T14:08:13;1.98;;;0.40;;
44410;SDS011;30122;54.734;-1.750;2022-08-01T14:11:17;0.88;;;0.68;;
44410;SDS011;30122;54.734;-1.750;2022-08-01T14:14:21;1.42;;;0.55;;
44410;SDS011;30122;54.734;-1.750;2022-08-01T14:17:23;1.10;;;0.50;;
44410;SDS011;30122;54.734;-1.750;2022-08-01T14:23:26;1.25;;;0.32;;
44410;SDS011;30122;54.734;-1.750;2022-08-01T14:26:28;1.73;;;0.40;;
44410;SDS011;30122;54.734;-1.750;2022-08-01T14:29:31;0.95;;;0.55;;
44410;SDS011;30122;54.734;-1.750;2022-08-01T14:32:52;3.25;;;0.40;;
44410;SDS011;30122;54.734;-1.750;2022-08-01T14:35:54;1.17;;;0.40;;
44410;SDS011;30122;54.734;-1.750;2022-08-01T14:45:20;0.70;;;0.40;;
44410;SDS011;30122;54.734;-1.750;2022-08-01T14:48:22;1.00;;;0.28;;
44410;SDS011;30122;54.734;-1.750;2022-08-01T14:51:24;1.73;;;0.40;;
44410;SDS011;30122;54.734;-1.750;2022-08-01T14:54:25;2.33;;;0.30;;
44410;SDS011;30122;54.734;-1.750;2022-08-01T14:57:29;2.65;;;0.38;;
44410;SDS011;30122;54.734;-1.750;2022-08-01T15:03:33;1.08;;;0.40;;
44410;SDS011;30122;54.734;-1.750;2022-08-01T15:06:35;0.40;;;0.40;;
44410;SDS011;30122;54.734;-1.750;2022-08-01T15:09:37;4.07;;;0.57;;
44410;SDS011;30122;54.734;-1.750;2022-08-01T15:12:39;1.75;;;0.93;;
44410;SDS011;30122;54.734;-1.750;2022-08-01T15:15:51;0.60;;;0.30;;
44410;SDS011;30122;54.734;-1.750;2022-08-01T15:18:52;1.73;;;0.35;;
44410;SDS011;30122;54.734;-1.750;2022-08-01T15:21:54;0.93;;;0.30;;
44410;SDS011;30122;54.734;-1.750;2022-08-01T15:24:57;2.08;;;0.30;;
44410;SDS011;30122;54.734;-1.750;2022-08-01T15:28:00;0.60;;;0.20;;
44410;SDS011;30122;54.734;-1.750;2022-08-01T15:31:01;0.38;;;0.35;;
44410;SDS011;30122;54.734;-1.750;2022-08-01T15:34:03;1.55;;;0.35;;
44410;SDS011;30122;54.734;-1.750;2022-08-01T15:37:05;0.60;;;0.30;;
44410;SDS011;30122;54.734;-1.750;2022-08-01T15:40:07;0.65;;;0.40;;
44410;SDS011;30122;54.734;-1.750;2022-08-01T15:43:10;0.52;;;0.40;;
44410;SDS011;30122;54.734;-1.750;2022-08-01T15:46:16;3.08;;;0.38;;
44410;SDS011;30122;54.734;-1.750;2022-08-01T15:49:18;1.05;;;0.45;;
44410;SDS011;30122;54.734;-1.750;2022-08-01T15:52:21;0.88;;;0.20;;
44410;SDS011;30122;54.734;-1.750;2022-08-01T15:55:34;0.57;;;0.43;;
44410;SDS011;30122;54.734;-1.750;2022-08-01T15:58:38;0.65;;;0.30;;
44410;SDS011;30122;54.734;-1.750;2022-08-01T16:01:40;3.22;;;0.35;;
44410;SDS011;30122;54.734;-1.750;2022-08-01T16:04:42;1.75;;;0.20;;
44410;SDS011;30122;54.734;-1.750;2022-08-01T16:07:44;0.40;;;0.30;;
44410;SDS011;30122;54.734;-1.750;2022-08-01T16:11:02;1.15;;;0.38;;
44410;SDS011;30122;54.734;-1.750;2022-08-01T16:14:03;0.52;;;0.30;;
44410;SDS011;30122;54.734;-1.750;2022-08-01T16:17:05;0.65;;;0.35;;
44410;SDS011;30122;54.734;-1.750;2022-08-01T16:20:07;1.48;;;0.60;;
44410;SDS011;30122;54.734;-1.750;2022-08-01T16:23:09;0.75;;;0.30;;
44410;SDS011;30122;54.734;-1.750;2022-08-01T16:26:11;0.93;;;0.30;;
44410;SDS011;30122;54.734;-1.750;2022-08-01T16:29:28;0.60;;;0.47;;
44410;SDS011;30122;54.734;-1.750;2022-08-01T16:32:32;0.85;;;0.30;;
44410;SDS011;30122;54.734;-1.750;2022-08-01T16:35:41;2.85;;;0.80;;
44410;SDS011;30122;54.734;-1.750;2022-08-01T16:38:47;1.23;;;0.50;;
44410;SDS011;30122;54.734;-1.750;2022-08-01T16:41:49;0.35;;;0.35;;
44410;SDS011;30122;54.734;-1.750;2022-08-01T16:44:55;0.57;;;0.30;;
44410;SDS011;30122;54.734;-1.750;2022-08-01T16:47:59;0.30;;;0.20;;
44410;SDS011;30122;54.734;-1.750;2022-08-01T16:51:02;0.32;;;0.30;;
44410;SDS011;30122;54.734;-1.750;2022-08-01T16:54:04;0.63;;;0.38;;
44410;SDS011;30122;54.734;-1.750;2022-08-01T16:57:26;0.93;;;0.50;;
44410;SDS011;30122;54.734;-1.750;2022-08-01T17:00:27;0.90;;;0.55;;
44410;SDS011;30122;54.734;-1.750;2022-08-01T17:03:29;1.63;;;0.30;;
44410;SDS011;30122;54.734;-1.750;2022-08-01T17:06:51;0.20;;;0.20;;
44410;SDS011;30122;54.734;-1.750;2022-08-01T17:09:53;0.90;;;0.50;;
44410;SDS011;30122;54.734;-1.750;2022-08-01T17:12:55;0.88;;;0.30;;
44410;SDS011;30122;54.734;-1.750;2022-08-01T17:15:57;1.13;;;0.32;;
44410;SDS011;30122;54.734;-1.750;2022-08-01T17:18:59;3.20;;;0.60;;
44410;SDS011;30122;54.734;-1.750;2022-08-01T17:25:02;2.00;;;0.77;;
44410;SDS011;30122;54.734;-1.750;2022-08-01T17:31:06;1.03;;;0.50;;
44410;SDS011;30122;54.734;-1.750;2022-08-01T17:34:10;0.95;;;0.47;;
44410;SDS011;30122;54.734;-1.750;2022-08-01T17:37:12;0.98;;;0.68;;
44410;SDS011;30122;54.734;-1.750;2022-08-01T17:40:14;1.30;;;0.60;;
44410;SDS011;30122;54.734;-1.750;2022-08-01T17:43:36;0.60;;;0.40;;
44410;SDS011;30122;54.734;-1.750;2022-08-01T17:46:38;1.67;;;0.70;;
44410;SDS011;30122;54.734;-1.750;2022-08-01T17:49:41;2.55;;;0.77;;
44410;SDS011;30122;54.734;-1.750;2022-08-01T17:52:55;0.57;;;0.57;;
44410;SDS011;30122;54.734;-1.750;2022-08-01T17:55:57;1.33;;;0.63;;
44410;SDS011;30122;54.734;-1.750;2022-08-01T17:59:01;0.75;;;0.50;;
44410;SDS011;30122;54.734;-1.750;2022-08-01T18:02:06;0.40;;;0.40;;
44410;SDS011;30122;54.734;-1.750;2022-08-01T18:05:09;3.03;;;0.60;;
44410;SDS011;30122;54.734;-1.750;2022-08-01T18:08:11;1.02;;;0.60;;
44410;SDS011;30122;54.734;-1.750;2022-08-01T18:11:14;0.80;;;0.57;;
44410;SDS011;30122;54.734;-1.750;2022-08-01T18:14:17;1.05;;;0.93;;
44410;SDS011;30122;54.734;-1.750;2022-08-01T18:17:19;2.55;;;0.73;;
44410;SDS011;30122;54.734;-1.750;2022-08-01T18:20:21;0.65;;;0.52;;
44410;SDS011;30122;54.734;-1.750;2022-08-01T18:23:23;1.38;;;0.68;;
44410;SDS011;30122;54.734;-1.750;2022-08-01T18:26:25;2.63;;;0.60;;
44410;SDS011;30122;54.734;-1.750;2022-08-01T18:32:48;1.25;;;0.50;;
44410;SDS011;30122;54.734;-1.750;2022-08-01T18:35:50;1.65;;;0.50;;
44410;SDS011;30122;54.734;-1.750;2022-08-01T18:38:54;0.80;;;0.50;;
44410;SDS011;30122;54.734;-1.750;2022-08-01T18:41:56;0.52;;;0.47;;
44410;SDS011;30122;54.734;-1.750;2022-08-01T18:45:00;0.40;;;0.40;;
44410;SDS011;30122;54.734;-1.750;2022-08-01T18:48:02;0.40;;;0.35;;
44410;SDS011;30122;54.734;-1.750;2022-08-01T18:51:04;2.13;;;0.77;;
44410;SDS011;30122;54.734;-1.750;2022-08-01T18:54:15;2.20;;;0.52;;
44410;SDS011;30122;54.734;-1.750;2022-08-01T18:57:17;0.70;;;0.50;;
44410;SDS011;30122;54.734;-1.750;2022-08-01T19:00:21;2.55;;;0.85;;
44410;SDS011;30122;54.734;-1.750;2022-08-01T19:03:23;4.97;;;1.30;;
44410;SDS011;30122;54.734;-1.750;2022-08-01T19:06:25;1.88;;;0.77;;
44410;SDS011;30122;54.734;-1.750;2022-08-01T19:09:28;0.90;;;0.70;;
44410;SDS011;30122;54.734;-1.750;2022-08-01T19:12:30;1.75;;;0.85;;
44410;SDS011;30122;54.734;-1.750;2022-08-01T19:15:32;0.82;;;0.60;;
44410;SDS011;30122;54.734;-1.750;2022-08-01T19:18:34;1.63;;;1.45;;
44410;SDS011;30122;54.734;-1.750;2022-08-01T19:21:36;2.72;;;0.77;;
44410;SDS011;30122;54.734;-1.750;2022-08-01T19:24:45;3.17;;;0.75;;
44410;SDS011;30122;54.734;-1.750;2022-08-01T19:27:47;1.83;;;0.70;;
44410;SDS011;30122;54.734;-1.750;2022-08-01T19:30:51;0.93;;;0.70;;
44410;SDS011;30122;54.734;-1.750;2022-08-01T19:33:55;7.45;;;1.05;;
44410;SDS011;30122;54.734;-1.750;2022-08-01T19:36:57;0.75;;;0.73;;
44410;SDS011;30122;54.734;-1.750;2022-08-01T19:39:59;2.42;;;0.88;;
44410;SDS011;30122;54.734;-1.750;2022-08-01T19:43:01;2.42;;;1.70;;
44410;SDS011;30122;54.734;-1.750;2022-08-01T19:46:03;1.48;;;0.80;;